CheckWX is a tool to help pilots better visualize weather data.  It is not intended as a substitute for an official pre-flight weather briefing.

20:34:50 UTC

FGBT METAR
Bata Airport
Equatorial Guinea
Current

35 mins ago

FGBT 182000Z 10003KT 070V130 9999 FEW010 28/27 Q1009
Observed
Feb-18 @ 20:00 UTC
Wind
  • 100° at 3 KTS
Visibility
10,000+ meters
Flight Rules
VFR
Cloud Levels
  • Few at 1,000' AGL
Temperature
28°C / 82°F
Dewpoint
27°C / 81°F
Humidity
94%
Altimeter
29.79" Hg
Pressure
1008.92 hPa
Previous

2 hours ago

FGBT 181900Z 23004KT 9999 FEW010 29/26 Q1008
Observed
Feb-18 @ 19:00 UTC
Wind
  • 230° at 4 KTS
Visibility
10,000+ meters
Flight Rules
VFR
Cloud Levels
  • Few at 1,000' AGL
Temperature
29°C / 84°F
Dewpoint
26°C / 79°F
Humidity
84%
Altimeter
29.76" Hg
Pressure
1007.92 hPa
Previous

3 hours ago

FGBT 181800Z 24005KT 210V270 9999 FEW010 29/26 Q1008
Observed
Feb-18 @ 18:00 UTC
Wind
  • 240° at 5 KTS
Visibility
10,000+ meters
Flight Rules
VFR
Cloud Levels
  • Few at 1,000' AGL
Temperature
29°C / 84°F
Dewpoint
26°C / 79°F
Humidity
84%
Altimeter
29.76" Hg
Pressure
1007.92 hPa